sensor_id;sensor_type;location;lat;lon;timestamp;temperature;humidity
463;DHT22;218;51.902;9.542;2023-05-29T00:22:43;17.80;1.00
463;DHT22;218;51.902;9.542;2023-05-29T00:35:01;17.60;1.00
463;DHT22;218;51.902;9.542;2023-05-29T00:39:56;17.60;1.00
463;DHT22;218;51.902;9.542;2023-05-29T00:54:44;17.30;1.00
463;DHT22;218;51.902;9.542;2023-05-29T01:07:04;17.20;1.00
463;DHT22;218;51.902;9.542;2023-05-29T01:12:13;17.00;1.00
463;DHT22;218;51.902;9.542;2023-05-29T01:22:40;16.90;1.00
463;DHT22;218;51.902;9.542;2023-05-29T01:27:48;16.90;1.00
463;DHT22;218;51.902;9.542;2023-05-29T01:35:10;16.80;1.00
463;DHT22;218;51.902;9.542;2023-05-29T01:45:01;16.60;1.00
463;DHT22;218;51.902;9.542;2023-05-29T01:49:57;16.60;1.00
463;DHT22;218;51.902;9.542;2023-05-29T02:29:18;16.20;1.00
463;DHT22;218;51.902;9.542;2023-05-29T03:48:00;14.80;1.00
463;DHT22;218;51.902;9.542;2023-05-29T05:33:48;15.70;1.00
463;DHT22;218;51.902;9.542;2023-05-29T05:46:06;15.50;1.00
463;DHT22;218;51.902;9.542;2023-05-29T06:20:33;17.10;1.00
463;DHT22;218;51.902;9.542;2023-05-29T06:27:58;17.30;1.00
463;DHT22;218;51.902;9.542;2023-05-29T06:32:52;17.60;1.00
463;DHT22;218;51.902;9.542;2023-05-29T06:45:10;18.20;1.00
463;DHT22;218;51.902;9.542;2023-05-29T06:59:58;18.60;1.00
463;DHT22;218;51.902;9.542;2023-05-29T07:02:25;18.80;1.00
463;DHT22;218;51.902;9.542;2023-05-29T07:14:42;19.30;1.00
463;DHT22;218;51.902;9.542;2023-05-29T07:17:09;19.50;1.00
463;DHT22;218;51.902;9.542;2023-05-29T07:26:58;19.80;1.00
463;DHT22;218;51.902;9.542;2023-05-29T07:31:53;20.00;1.00
463;DHT22;218;51.902;9.542;2023-05-29T07:34:20;20.00;1.00
463;DHT22;218;51.902;9.542;2023-05-29T07:36:58;20.10;1.00
463;DHT22;218;51.902;9.542;2023-05-29T07:39:26;20.30;1.00
463;DHT22;218;51.902;9.542;2023-05-29T07:41:53;20.30;1.00
463;DHT22;218;51.902;9.542;2023-05-29T07:44:20;20.50;1.00
463;DHT22;218;51.902;9.542;2023-05-29T07:49:15;20.60;1.00
463;DHT22;218;51.902;9.542;2023-05-29T07:51:42;20.80;1.00
463;DHT22;218;51.902;9.542;2023-05-29T07:54:09;20.90;1.00
463;DHT22;218;51.902;9.542;2023-05-29T07:56:36;20.90;1.00
463;DHT22;218;51.902;9.542;2023-05-29T07:59:03;21.00;1.00
463;DHT22;218;51.902;9.542;2023-05-29T08:01:31;21.10;1.00
463;DHT22;218;51.902;9.542;2023-05-29T08:03:59;21.20;1.00
463;DHT22;218;51.902;9.542;2023-05-29T08:06:26;21.30;1.00
463;DHT22;218;51.902;9.542;2023-05-29T08:08:53;21.40;1.00
463;DHT22;218;51.902;9.542;2023-05-29T08:11:21;21.50;1.00
463;DHT22;218;51.902;9.542;2023-05-29T08:13:48;21.50;1.00
463;DHT22;218;51.902;9.542;2023-05-29T08:16:15;21.60;1.00
463;DHT22;218;51.902;9.542;2023-05-29T08:18:42;21.60;1.00
463;DHT22;218;51.902;9.542;2023-05-29T08:21:11;21.80;1.00
463;DHT22;218;51.902;9.542;2023-05-29T08:23:38;21.80;1.00
463;DHT22;218;51.902;9.542;2023-05-29T08:26:05;21.90;1.00
463;DHT22;218;51.902;9.542;2023-05-29T08:28:32;22.00;1.00
463;DHT22;218;51.902;9.542;2023-05-29T08:30:59;22.10;1.00
463;DHT22;218;51.902;9.542;2023-05-29T08:33:26;22.20;1.00
463;DHT22;218;51.902;9.542;2023-05-29T08:35:53;22.20;1.00
463;DHT22;218;51.902;9.542;2023-05-29T08:38:21;22.30;1.00
463;DHT22;218;51.902;9.542;2023-05-29T08:40:51;22.30;1.00
463;DHT22;218;51.902;9.542;2023-05-29T08:43:20;22.40;1.00
463;DHT22;218;51.902;9.542;2023-05-29T08:45:52;22.50;1.00
463;DHT22;218;51.902;9.542;2023-05-29T08:48:22;22.50;1.00
463;DHT22;218;51.902;9.542;2023-05-29T08:50:49;22.60;1.00
463;DHT22;218;51.902;9.542;2023-05-29T08:53:19;22.70;1.00
463;DHT22;218;51.902;9.542;2023-05-29T08:55:48;22.80;1.00
463;DHT22;218;51.902;9.542;2023-05-29T08:58:17;22.90;1.00
463;DHT22;218;51.902;9.542;2023-05-29T09:00:46;23.00;1.00
463;DHT22;218;51.902;9.542;2023-05-29T09:03:13;23.00;1.00
463;DHT22;218;51.902;9.542;2023-05-29T09:05:41;23.10;1.00
463;DHT22;218;51.902;9.542;2023-05-29T09:08:09;23.20;1.00
463;DHT22;218;51.902;9.542;2023-05-29T09:10:37;23.30;1.00
463;DHT22;218;51.902;9.542;2023-05-29T09:13:06;23.30;1.00
463;DHT22;218;51.902;9.542;2023-05-29T09:15:34;23.40;1.00
463;DHT22;218;51.902;9.542;2023-05-29T09:18:04;23.50;1.00
463;DHT22;218;51.902;9.542;2023-05-29T09:20:33;23.50;1.00
463;DHT22;218;51.902;9.542;2023-05-29T09:23:01;23.60;1.00
463;DHT22;218;51.902;9.542;2023-05-29T09:25:30;23.70;1.00
463;DHT22;218;51.902;9.542;2023-05-29T09:27:59;23.70;1.00
463;DHT22;218;51.902;9.542;2023-05-29T09:30:34;23.80;1.00
463;DHT22;218;51.902;9.542;2023-05-29T09:33:02;23.90;1.00
463;DHT22;218;51.902;9.542;2023-05-29T09:35:33;23.90;1.00
463;DHT22;218;51.902;9.542;2023-05-29T09:38:00;24.00;1.00
463;DHT22;218;51.902;9.542;2023-05-29T09:40:30;24.00;1.00
463;DHT22;218;51.902;9.542;2023-05-29T09:43:05;24.10;1.00
463;DHT22;218;51.902;9.542;2023-05-29T09:45:37;24.20;1.00
463;DHT22;218;51.902;9.542;2023-05-29T09:48:06;24.20;1.00
463;DHT22;218;51.902;9.542;2023-05-29T09:50:33;24.30;1.00
463;DHT22;218;51.902;9.542;2023-05-29T09:53:00;24.30;1.00
463;DHT22;218;51.902;9.542;2023-05-29T09:55:30;24.40;1.00
463;DHT22;218;51.902;9.542;2023-05-29T09:57:59;24.40;1.00
463;DHT22;218;51.902;9.542;2023-05-29T10:00:26;24.50;1.00
463;DHT22;218;51.902;9.542;2023-05-29T10:02:54;24.50;1.00
463;DHT22;218;51.902;9.542;2023-05-29T10:05:21;24.60;1.00
463;DHT22;218;51.902;9.542;2023-05-29T10:07:50;24.70;1.00
463;DHT22;218;51.902;9.542;2023-05-29T10:10:19;24.70;1.00
463;DHT22;218;51.902;9.542;2023-05-29T10:12:48;24.80;1.00
463;DHT22;218;51.902;9.542;2023-05-29T10:15:16;24.90;1.00
463;DHT22;218;51.902;9.542;2023-05-29T10:17:50;24.90;1.00
463;DHT22;218;51.902;9.542;2023-05-29T10:20:20;25.00;1.00
463;DHT22;218;51.902;9.542;2023-05-29T10:22:50;25.00;1.00
463;DHT22;218;51.902;9.542;2023-05-29T10:25:18;25.10;1.00
463;DHT22;218;51.902;9.542;2023-05-29T10:27:47;25.20;1.00
463;DHT22;218;51.902;9.542;2023-05-29T10:30:23;25.20;1.00
463;DHT22;218;51.902;9.542;2023-05-29T10:33:10;25.30;1.00
463;DHT22;218;51.902;9.542;2023-05-29T10:35:46;25.30;1.00
463;DHT22;218;51.902;9.542;2023-05-29T10:38:14;25.40;1.00
463;DHT22;218;51.902;9.542;2023-05-29T10:40:44;25.40;1.00
463;DHT22;218;51.902;9.542;2023-05-29T10:43:30;25.50;1.00
463;DHT22;218;51.902;9.542;2023-05-29T10:45:57;25.50;1.00
463;DHT22;218;51.902;9.542;2023-05-29T10:48:41;25.50;1.00
463;DHT22;218;51.902;9.542;2023-05-29T10:51:24;25.60;1.00
463;DHT22;218;51.902;9.542;2023-05-29T10:53:52;25.60;1.00
463;DHT22;218;51.902;9.542;2023-05-29T10:56:23;25.70;1.00
463;DHT22;218;51.902;9.542;2023-05-29T10:58:55;25.70;1.00
463;DHT22;218;51.902;9.542;2023-05-29T11:01:23;25.70;1.00
463;DHT22;218;51.902;9.542;2023-05-29T11:03:51;25.80;1.00
463;DHT22;218;51.902;9.542;2023-05-29T11:06:21;25.80;1.00
463;DHT22;218;51.902;9.542;2023-05-29T11:08:53;25.80;1.00
463;DHT22;218;51.902;9.542;2023-05-29T11:11:29;25.90;1.00
463;DHT22;218;51.902;9.542;2023-05-29T11:14:00;25.90;1.00
463;DHT22;218;51.902;9.542;2023-05-29T11:16:37;26.00;1.00
463;DHT22;218;51.902;9.542;2023-05-29T11:19:05;26.00;1.00
463;DHT22;218;51.902;9.542;2023-05-29T11:21:44;26.10;1.00
463;DHT22;218;51.902;9.542;2023-05-29T11:24:20;26.10;1.00
463;DHT22;218;51.902;9.542;2023-05-29T11:26:48;26.20;1.00
463;DHT22;218;51.902;9.542;2023-05-29T11:29:21;26.30;1.00
463;DHT22;218;51.902;9.542;2023-05-29T11:31:49;26.30;1.00
463;DHT22;218;51.902;9.542;2023-05-29T11:34:21;26.40;1.00
463;DHT22;218;51.902;9.542;2023-05-29T11:36:51;26.50;1.00
463;DHT22;218;51.902;9.542;2023-05-29T11:39:18;26.50;1.00
463;DHT22;218;51.902;9.542;2023-05-29T11:41:49;26.60;1.00
463;DHT22;218;51.902;9.542;2023-05-29T11:44:16;26.70;1.00
463;DHT22;218;51.902;9.542;2023-05-29T11:46:43;26.70;1.00
463;DHT22;218;51.902;9.542;2023-05-29T11:49:10;26.80;1.00
463;DHT22;218;51.902;9.542;2023-05-29T11:51:37;26.80;1.00
463;DHT22;218;51.902;9.542;2023-05-29T11:54:05;26.90;1.00
463;DHT22;218;51.902;9.542;2023-05-29T11:56:32;27.00;1.00
463;DHT22;218;51.902;9.542;2023-05-29T11:58:59;27.10;1.00
463;DHT22;218;51.902;9.542;2023-05-29T12:01:34;27.10;1.00
463;DHT22;218;51.902;9.542;2023-05-29T12:04:01;27.20;1.00
463;DHT22;218;51.902;9.542;2023-05-29T12:06:31;27.30;1.00
463;DHT22;218;51.902;9.542;2023-05-29T12:08:59;27.30;1.00
463;DHT22;218;51.902;9.542;2023-05-29T12:11:28;27.40;1.00
463;DHT22;218;51.902;9.542;2023-05-29T12:13:56;27.40;1.00
463;DHT22;218;51.902;9.542;2023-05-29T12:16:23;27.50;1.00
463;DHT22;218;51.902;9.542;2023-05-29T12:18:51;27.50;1.00
463;DHT22;218;51.902;9.542;2023-05-29T12:21:21;27.60;1.00
463;DHT22;218;51.902;9.542;2023-05-29T12:23:48;27.70;1.00
463;DHT22;218;51.902;9.542;2023-05-29T12:26:15;27.70;1.00
463;DHT22;218;51.902;9.542;2023-05-29T12:28:44;27.80;1.00
463;DHT22;218;51.902;9.542;2023-05-29T12:31:11;27.90;1.00
463;DHT22;218;51.902;9.542;2023-05-29T12:33:44;27.90;1.00
463;DHT22;218;51.902;9.542;2023-05-29T12:36:12;28.00;1.00
463;DHT22;218;51.902;9.542;2023-05-29T12:38:47;28.10;1.00
463;DHT22;218;51.902;9.542;2023-05-29T12:41:27;28.20;1.00
463;DHT22;218;51.902;9.542;2023-05-29T12:43:57;28.20;1.00
463;DHT22;218;51.902;9.542;2023-05-29T12:46:25;28.30;1.00
463;DHT22;218;51.902;9.542;2023-05-29T12:48:53;28.40;1.00
463;DHT22;218;51.902;9.542;2023-05-29T12:51:24;28.40;1.00
463;DHT22;218;51.902;9.542;2023-05-29T12:53:51;28.60;1.00
463;DHT22;218;51.902;9.542;2023-05-29T12:56:21;28.60;1.00
463;DHT22;218;51.902;9.542;2023-05-29T12:58:49;28.70;1.00
463;DHT22;218;51.902;9.542;2023-05-29T13:01:18;28.70;1.00
463;DHT22;218;51.902;9.542;2023-05-29T13:03:45;28.70;1.00
463;DHT22;218;51.902;9.542;2023-05-29T13:06:12;28.70;1.00
463;DHT22;218;51.902;9.542;2023-05-29T13:08:39;28.70;1.00
463;DHT22;218;51.902;9.542;2023-05-29T13:11:06;28.70;1.00
463;DHT22;218;51.902;9.542;2023-05-29T13:13:33;28.70;1.00
463;DHT22;218;51.902;9.542;2023-05-29T13:16:00;28.80;1.00
463;DHT22;218;51.902;9.542;2023-05-29T13:18:28;28.80;1.00
463;DHT22;218;51.902;9.542;2023-05-29T13:20:57;28.90;1.00
463;DHT22;218;51.902;9.542;2023-05-29T13:23:25;29.00;1.00
463;DHT22;218;51.902;9.542;2023-05-29T13:25:52;29.00;1.00
463;DHT22;218;51.902;9.542;2023-05-29T13:28:19;29.00;1.00
463;DHT22;218;51.902;9.542;2023-05-29T13:30:47;29.10;1.00
463;DHT22;218;51.902;9.542;2023-05-29T13:33:15;29.10;1.00
463;DHT22;218;51.902;9.542;2023-05-29T13:35:44;29.20;1.00
463;DHT22;218;51.902;9.542;2023-05-29T13:38:10;29.30;1.00
463;DHT22;218;51.902;9.542;2023-05-29T13:40:37;29.30;1.00
463;DHT22;218;51.902;9.542;2023-05-29T13:43:05;29.40;1.00
463;DHT22;218;51.902;9.542;2023-05-29T13:45:31;29.40;1.00
463;DHT22;218;51.902;9.542;2023-05-29T13:47:58;29.50;1.00
463;DHT22;218;51.902;9.542;2023-05-29T13:50:25;29.50;1.00
463;DHT22;218;51.902;9.542;2023-05-29T13:52:54;29.60;1.00
463;DHT22;218;51.902;9.542;2023-05-29T13:55:22;29.60;1.00
463;DHT22;218;51.902;9.542;2023-05-29T13:57:49;29.70;1.00
463;DHT22;218;51.902;9.542;2023-05-29T14:00:17;29.70;1.00
463;DHT22;218;51.902;9.542;2023-05-29T14:02:44;29.80;1.00
463;DHT22;218;51.902;9.542;2023-05-29T14:05:10;29.80;1.00
463;DHT22;218;51.902;9.542;2023-05-29T14:07:37;29.90;1.00
463;DHT22;218;51.902;9.542;2023-05-29T14:10:06;29.90;1.00
463;DHT22;218;51.902;9.542;2023-05-29T14:12:33;29.90;1.00
463;DHT22;218;51.902;9.542;2023-05-29T14:15:00;30.00;1.00
463;DHT22;218;51.902;9.542;2023-05-29T14:17:27;30.00;1.00
463;DHT22;218;51.902;9.542;2023-05-29T14:19:54;30.00;1.00
463;DHT22;218;51.902;9.542;2023-05-29T14:22:21;30.10;1.00
463;DHT22;218;51.902;9.542;2023-05-29T14:24:48;30.20;1.00
463;DHT22;218;51.902;9.542;2023-05-29T14:27:16;30.20;1.00
463;DHT22;218;51.902;9.542;2023-05-29T14:29:43;30.20;1.00
463;DHT22;218;51.902;9.542;2023-05-29T14:32:11;30.20;1.00
463;DHT22;218;51.902;9.542;2023-05-29T14:34:38;30.30;1.00
463;DHT22;218;51.902;9.542;2023-05-29T14:37:05;30.30;1.00
463;DHT22;218;51.902;9.542;2023-05-29T14:39:32;30.30;1.00
463;DHT22;218;51.902;9.542;2023-05-29T14:41:59;30.30;1.00
463;DHT22;218;51.902;9.542;2023-05-29T14:44:28;30.40;1.00
463;DHT22;218;51.902;9.542;2023-05-29T14:46:55;30.40;1.00
463;DHT22;218;51.902;9.542;2023-05-29T14:49:22;30.40;1.00
463;DHT22;218;51.902;9.542;2023-05-29T14:51:49;30.40;1.00
463;DHT22;218;51.902;9.542;2023-05-29T14:54:15;30.40;1.00
463;DHT22;218;51.902;9.542;2023-05-29T14:56:42;30.40;1.00
463;DHT22;218;51.902;9.542;2023-05-29T14:59:09;30.40;1.00
463;DHT22;218;51.902;9.542;2023-05-29T15:01:37;30.40;1.00
463;DHT22;218;51.902;9.542;2023-05-29T15:04:04;30.40;1.00
463;DHT22;218;51.902;9.542;2023-05-29T15:06:32;30.40;1.00
463;DHT22;218;51.902;9.542;2023-05-29T15:08:59;30.40;1.00
463;DHT22;218;51.902;9.542;2023-05-29T15:11:26;30.30;1.00
463;DHT22;218;51.902;9.542;2023-05-29T15:13:53;30.30;1.00
463;DHT22;218;51.902;9.542;2023-05-29T15:16:20;30.30;1.00
463;DHT22;218;51.902;9.542;2023-05-29T15:18:48;30.30;1.00
463;DHT22;218;51.902;9.542;2023-05-29T15:21:15;30.20;1.00
463;DHT22;218;51.902;9.542;2023-05-29T15:23:42;30.20;1.00
463;DHT22;218;51.902;9.542;2023-05-29T15:26:09;30.10;1.00
463;DHT22;218;51.902;9.542;2023-05-29T15:28:36;30.00;1.00
463;DHT22;218;51.902;9.542;2023-05-29T15:31:03;29.90;1.00
463;DHT22;218;51.902;9.542;2023-05-29T15:33:30;29.90;1.00
463;DHT22;218;51.902;9.542;2023-05-29T15:35:58;29.80;1.00
463;DHT22;218;51.902;9.542;2023-05-29T15:38:25;29.80;1.00
463;DHT22;218;51.902;9.542;2023-05-29T15:40:52;29.70;1.00
463;DHT22;218;51.902;9.542;2023-05-29T15:43:19;29.60;1.00
463;DHT22;218;51.902;9.542;2023-05-29T15:45:46;29.50;1.00
463;DHT22;218;51.902;9.542;2023-05-29T15:48:14;29.40;1.00
463;DHT22;218;51.902;9.542;2023-05-29T15:50:41;29.40;1.00
463;DHT22;218;51.902;9.542;2023-05-29T15:53:09;29.30;1.00
463;DHT22;218;51.902;9.542;2023-05-29T15:55:36;29.20;1.00
463;DHT22;218;51.902;9.542;2023-05-29T15:58:03;29.20;1.00
463;DHT22;218;51.902;9.542;2023-05-29T16:00:31;29.10;1.00
463;DHT22;218;51.902;9.542;2023-05-29T16:02:59;29.00;1.00
463;DHT22;218;51.902;9.542;2023-05-29T16:05:26;29.00;1.00
463;DHT22;218;51.902;9.542;2023-05-29T16:07:54;28.90;1.00
463;DHT22;218;51.902;9.542;2023-05-29T16:10:22;28.80;1.00
463;DHT22;218;51.902;9.542;2023-05-29T16:12:50;28.80;1.00
463;DHT22;218;51.902;9.542;2023-05-29T16:15:17;28.60;1.00
463;DHT22;218;51.902;9.542;2023-05-29T16:17:45;28.60;1.00
463;DHT22;218;51.902;9.542;2023-05-29T16:20:12;28.50;1.00
463;DHT22;218;51.902;9.542;2023-05-29T16:22:40;28.50;1.00
463;DHT22;218;51.902;9.542;2023-05-29T16:25:07;28.40;1.00
463;DHT22;218;51.902;9.542;2023-05-29T16:27:36;28.30;1.00
463;DHT22;218;51.902;9.542;2023-05-29T16:30:03;28.20;1.00
463;DHT22;218;51.902;9.542;2023-05-29T16:32:31;28.20;1.00
463;DHT22;218;51.902;9.542;2023-05-29T16:34:58;28.10;1.00
463;DHT22;218;51.902;9.542;2023-05-29T16:37:25;28.00;1.00
463;DHT22;218;51.902;9.542;2023-05-29T16:39:51;27.90;1.00
463;DHT22;218;51.902;9.542;2023-05-29T16:42:18;27.80;1.00
463;DHT22;218;51.902;9.542;2023-05-29T16:44:47;27.80;1.00
463;DHT22;218;51.902;9.542;2023-05-29T16:47:14;27.60;1.00
463;DHT22;218;51.902;9.542;2023-05-29T16:49:41;27.60;1.00
463;DHT22;218;51.902;9.542;2023-05-29T16:52:08;27.50;1.00
463;DHT22;218;51.902;9.542;2023-05-29T16:54:35;27.40;1.00
463;DHT22;218;51.902;9.542;2023-05-29T16:57:06;27.30;1.00
463;DHT22;218;51.902;9.542;2023-05-29T16:59:33;27.20;1.00
463;DHT22;218;51.902;9.542;2023-05-29T17:02:01;27.20;1.00
463;DHT22;218;51.902;9.542;2023-05-29T17:04:28;27.10;1.00
463;DHT22;218;51.902;9.542;2023-05-29T17:06:55;27.00;1.00
463;DHT22;218;51.902;9.542;2023-05-29T17:09:23;26.90;1.00
463;DHT22;218;51.902;9.542;2023-05-29T17:11:52;26.90;1.00
463;DHT22;218;51.902;9.542;2023-05-29T17:14:19;26.80;1.00
463;DHT22;218;51.902;9.542;2023-05-29T17:16:46;26.70;1.00
463;DHT22;218;51.902;9.542;2023-05-29T17:19:14;26.60;1.00
463;DHT22;218;51.902;9.542;2023-05-29T17:21:41;26.60;1.00
463;DHT22;218;51.902;9.542;2023-05-29T17:24:09;26.50;1.00
463;DHT22;218;51.902;9.542;2023-05-29T17:26:36;26.40;1.00
463;DHT22;218;51.902;9.542;2023-05-29T17:29:03;26.40;1.00
463;DHT22;218;51.902;9.542;2023-05-29T17:31:30;26.30;1.00
463;DHT22;218;51.902;9.542;2023-05-29T17:33:57;26.30;1.00
463;DHT22;218;51.902;9.542;2023-05-29T17:36:25;26.20;1.00
463;DHT22;218;51.902;9.542;2023-05-29T17:38:52;26.10;1.00
463;DHT22;218;51.902;9.542;2023-05-29T17:41:19;26.10;1.00
463;DHT22;218;51.902;9.542;2023-05-29T17:43:46;26.00;1.00
463;DHT22;218;51.902;9.542;2023-05-29T17:46:13;25.90;1.00
463;DHT22;218;51.902;9.542;2023-05-29T17:48:44;25.80;1.00
463;DHT22;218;51.902;9.542;2023-05-29T17:51:10;25.70;1.00
463;DHT22;218;51.902;9.542;2023-05-29T17:53:39;25.70;1.00
463;DHT22;218;51.902;9.542;2023-05-29T17:56:06;25.60;1.00
463;DHT22;218;51.902;9.542;2023-05-29T17:58:33;25.50;1.00
463;DHT22;218;51.902;9.542;2023-05-29T18:01:01;25.40;1.00
463;DHT22;218;51.902;9.542;2023-05-29T18:03:28;25.40;1.00
463;DHT22;218;51.902;9.542;2023-05-29T18:05:55;25.30;1.00
463;DHT22;218;51.902;9.542;2023-05-29T18:08:22;25.30;1.00
463;DHT22;218;51.902;9.542;2023-05-29T18:10:50;25.20;1.00
463;DHT22;218;51.902;9.542;2023-05-29T18:13:17;25.10;1.00
463;DHT22;218;51.902;9.542;2023-05-29T18:15:44;25.10;1.00
463;DHT22;218;51.902;9.542;2023-05-29T18:18:11;25.10;1.00
463;DHT22;218;51.902;9.542;2023-05-29T18:20:38;25.00;1.00
463;DHT22;218;51.902;9.542;2023-05-29T18:23:05;25.00;1.00
463;DHT22;218;51.902;9.542;2023-05-29T18:25:32;25.00;1.00
463;DHT22;218;51.902;9.542;2023-05-29T18:28:02;24.90;1.00
463;DHT22;218;51.902;9.542;2023-05-29T18:30:29;24.90;1.00
463;DHT22;218;51.902;9.542;2023-05-29T18:32:56;24.90;1.00
463;DHT22;218;51.902;9.542;2023-05-29T18:35:26;24.90;1.00
463;DHT22;218;51.902;9.542;2023-05-29T18:37:53;24.80;1.00
463;DHT22;218;51.902;9.542;2023-05-29T18:40:20;24.70;1.00
463;DHT22;218;51.902;9.542;2023-05-29T18:42:47;24.70;1.00
463;DHT22;218;51.902;9.542;2023-05-29T18:45:15;24.60;1.00
463;DHT22;218;51.902;9.542;2023-05-29T18:47:42;24.50;1.00
463;DHT22;218;51.902;9.542;2023-05-29T18:50:11;24.50;1.00
463;DHT22;218;51.902;9.542;2023-05-29T18:52:38;24.30;1.00
463;DHT22;218;51.902;9.542;2023-05-29T18:55:06;24.20;1.00
463;DHT22;218;51.902;9.542;2023-05-29T18:57:33;24.10;1.00
463;DHT22;218;51.902;9.542;2023-05-29T19:00:03;24.00;1.00
463;DHT22;218;51.902;9.542;2023-05-29T19:02:32;23.90;1.00
463;DHT22;218;51.902;9.542;2023-05-29T19:04:59;23.80;1.00
463;DHT22;218;51.902;9.542;2023-05-29T19:07:26;23.70;1.00
463;DHT22;218;51.902;9.542;2023-05-29T19:09:52;23.60;1.00
463;DHT22;218;51.902;9.542;2023-05-29T19:12:19;23.40;1.00
463;DHT22;218;51.902;9.542;2023-05-29T19:14:46;23.20;1.00
463;DHT22;218;51.902;9.542;2023-05-29T19:17:13;23.20;1.00
463;DHT22;218;51.902;9.542;2023-05-29T19:19:42;23.10;1.00
463;DHT22;218;51.902;9.542;2023-05-29T19:22:09;22.90;1.00
463;DHT22;218;51.902;9.542;2023-05-29T19:24:36;22.80;1.00
463;DHT22;218;51.902;9.542;2023-05-29T19:27:04;22.70;1.00
463;DHT22;218;51.902;9.542;2023-05-29T19:29:33;22.60;1.00
463;DHT22;218;51.902;9.542;2023-05-29T19:32:00;22.50;1.00
463;DHT22;218;51.902;9.542;2023-05-29T19:34:27;22.40;1.00
463;DHT22;218;51.902;9.542;2023-05-29T19:36:55;22.30;1.00
463;DHT22;218;51.902;9.542;2023-05-29T19:39:22;22.20;1.00
463;DHT22;218;51.902;9.542;2023-05-29T19:41:49;22.20;1.00
463;DHT22;218;51.902;9.542;2023-05-29T19:44:16;22.10;1.00
463;DHT22;218;51.902;9.542;2023-05-29T19:46:43;22.10;1.00
463;DHT22;218;51.902;9.542;2023-05-29T19:49:13;22.00;1.00
463;DHT22;218;51.902;9.542;2023-05-29T19:51:40;22.00;1.00
463;DHT22;218;51.902;9.542;2023-05-29T19:56:36;21.80;1.00
463;DHT22;218;51.902;9.542;2023-05-29T20:01:30;21.60;1.00
463;DHT22;218;51.902;9.542;2023-05-29T20:03:57;21.60;1.00
463;DHT22;218;51.902;9.542;2023-05-29T20:06:28;21.50;1.00
463;DHT22;218;51.902;9.542;2023-05-29T20:08:56;21.40;1.00
463;DHT22;218;51.902;9.542;2023-05-29T20:11:24;21.40;1.00
463;DHT22;218;51.902;9.542;2023-05-29T20:16:18;21.30;1.00
463;DHT22;218;51.902;9.542;2023-05-29T20:18:45;21.20;1.00
463;DHT22;218;51.902;9.542;2023-05-29T20:21:13;21.10;1.00
463;DHT22;218;51.902;9.542;2023-05-29T20:23:40;21.00;1.00
463;DHT22;218;51.902;9.542;2023-05-29T20:26:06;20.90;1.00
463;DHT22;218;51.902;9.542;2023-05-29T20:33:29;20.70;1.00
463;DHT22;218;51.902;9.542;2023-05-29T20:43:25;20.50;1.00
463;DHT22;218;51.902;9.542;2023-05-29T20:53:28;20.20;1.00
463;DHT22;218;51.902;9.542;2023-05-29T20:55:59;20.20;1.00
463;DHT22;218;51.902;9.542;2023-05-29T20:58:29;20.20;1.00
463;DHT22;218;51.902;9.542;2023-05-29T21:01:03;20.10;1.00
463;DHT22;218;51.902;9.542;2023-05-29T21:11:11;20.00;1.00
463;DHT22;218;51.902;9.542;2023-05-29T21:18:47;19.70;1.00
463;DHT22;218;51.902;9.542;2023-05-29T21:21:41;19.60;1.00
463;DHT22;218;51.902;9.542;2023-05-29T21:31:38;19.30;1.00
463;DHT22;218;51.902;9.542;2023-05-29T21:34:06;19.40;1.00
463;DHT22;218;51.902;9.542;2023-05-29T21:41:35;19.10;1.00
463;DHT22;218;51.902;9.542;2023-05-29T22:16:18;18.30;1.00
463;DHT22;218;51.902;9.542;2023-05-29T22:18:47;18.30;1.00
463;DHT22;218;51.902;9.542;2023-05-29T22:33:33;17.90;1.00
463;DHT22;218;51.902;9.542;2023-05-29T22:38:28;17.70;1.00
463;DHT22;218;51.902;9.542;2023-05-29T22:58:13;17.00;1.00
